sensor_id;sensor_type;location;lat;lon;timestamp;pressure;altitude;pressure_sealevel;temperature;humidity
21359;BME280;13506;50.852;20.632;2024-03-17T00:01:22;59339.63;;;-143.89;65.76
21359;BME280;13506;50.852;20.632;2024-03-17T00:03:49;59337.63;;;-143.89;65.54
21359;BME280;13506;50.852;20.632;2024-03-17T00:06:18;59355.47;;;-143.89;65.79
21359;BME280;13506;50.852;20.632;2024-03-17T00:08:46;59341.59;;;-143.89;65.41
21359;BME280;13506;50.852;20.632;2024-03-17T00:11:14;59317.84;;;-143.89;66.25
21359;BME280;13506;50.852;20.632;2024-03-17T00:13:41;59341.59;;;-143.89;65.44
21359;BME280;13506;50.852;20.632;2024-03-17T00:16:09;59347.53;;;-143.89;65.93
21359;BME280;13506;50.852;20.632;2024-03-17T00:18:36;59357.44;;;-143.89;65.81
21359;BME280;13506;50.852;20.632;2024-03-17T00:21:04;59341.59;;;-143.89;66.48
21359;BME280;13506;50.852;20.632;2024-03-17T00:23:31;59327.75;;;-143.89;66.65
21359;BME280;13506;50.852;20.632;2024-03-17T00:26:01;59385.16;;;-143.89;66.88
21359;BME280;13506;50.852;20.632;2024-03-17T00:28:28;59327.75;;;-143.89;66.36
21359;BME280;13506;50.852;20.632;2024-03-17T00:30:56;59363.38;;;-143.89;66.44
21359;BME280;13506;50.852;20.632;2024-03-17T00:33:23;59343.59;;;-143.89;66.93
21359;BME280;13506;50.852;20.632;2024-03-17T00:35:52;59369.31;;;-143.89;67.07
21359;BME280;13506;50.852;20.632;2024-03-17T00:38:20;59371.31;;;-143.89;66.38
21359;BME280;13506;50.852;20.632;2024-03-17T00:40:47;59369.31;;;-143.89;65.03
21359;BME280;13506;50.852;20.632;2024-03-17T00:43:16;59381.22;;;-143.89;66.17
21359;BME280;13506;50.852;20.632;2024-03-17T00:45:44;59385.16;;;-143.89;67.54
21359;BME280;13506;50.852;20.632;2024-03-17T00:48:18;59410.91;;;-143.89;67.85
21359;BME280;13506;50.852;20.632;2024-03-17T00:50:46;59418.84;;;-143.89;67.61
21359;BME280;13506;50.852;20.632;2024-03-17T00:53:14;59434.69;;;-143.89;68.05
21359;BME280;13506;50.852;20.632;2024-03-17T00:55:41;59450.53;;;-143.89;67.47
21359;BME280;13506;50.852;20.632;2024-03-17T00:58:09;59450.53;;;-143.89;65.29
21359;BME280;13506;50.852;20.632;2024-03-17T01:00:38;59452.50;;;-143.89;62.14
21359;BME280;13506;50.852;20.632;2024-03-17T01:03:06;59466.38;;;-143.89;58.74
21359;BME280;13506;50.852;20.632;2024-03-17T01:05:37;59426.75;;;-143.89;58.55
21359;BME280;13506;50.852;20.632;2024-03-17T01:08:07;59470.31;;;-143.89;59.53
21359;BME280;13506;50.852;20.632;2024-03-17T01:10:37;59464.38;;;-143.89;59.28
21359;BME280;13506;50.852;20.632;2024-03-17T01:13:05;59496.06;;;-143.89;59.04
21359;BME280;13506;50.852;20.632;2024-03-17T01:15:34;59458.44;;;-143.89;59.10
21359;BME280;13506;50.852;20.632;2024-03-17T01:18:03;59470.31;;;-143.89;59.64
21359;BME280;13506;50.852;20.632;2024-03-17T01:20:32;59472.31;;;-143.89;59.61
21359;BME280;13506;50.852;20.632;2024-03-17T01:23:00;59470.31;;;-143.89;60.12
21359;BME280;13506;50.852;20.632;2024-03-17T01:25:28;59470.31;;;-143.89;60.12
21359;BME280;13506;50.852;20.632;2024-03-17T01:27:56;59462.41;;;-143.89;58.90
21359;BME280;13506;50.852;20.632;2024-03-17T01:30:24;59486.16;;;-143.89;58.55
21359;BME280;13506;50.852;20.632;2024-03-17T01:32:52;59450.53;;;-143.89;59.03
21359;BME280;13506;50.852;20.632;2024-03-17T01:35:21;59484.19;;;-143.89;58.37
21359;BME280;13506;50.852;20.632;2024-03-17T01:37:49;59480.22;;;-143.89;59.11
21359;BME280;13506;50.852;20.632;2024-03-17T01:40:17;59434.69;;;-143.89;58.53
21359;BME280;13506;50.852;20.632;2024-03-17T01:42:44;59462.41;;;-143.89;59.10
21359;BME280;13506;50.852;20.632;2024-03-17T01:45:27;59454.47;;;-143.89;58.69
21359;BME280;13506;50.852;20.632;2024-03-17T01:47:55;59474.28;;;-143.89;58.91
21359;BME280;13506;50.852;20.632;2024-03-17T01:50:28;59462.41;;;-143.89;58.47
21359;BME280;13506;50.852;20.632;2024-03-17T01:53:00;59462.41;;;-143.89;58.73
21359;BME280;13506;50.852;20.632;2024-03-17T01:55:29;59426.75;;;-143.89;59.16
21359;BME280;13506;50.852;20.632;2024-03-17T01:57:56;59450.53;;;-143.89;58.92
21359;BME280;13506;50.852;20.632;2024-03-17T02:00:24;59436.66;;;-143.89;59.19
21359;BME280;13506;50.852;20.632;2024-03-17T02:02:53;59460.41;;;-143.89;58.47
21359;BME280;13506;50.852;20.632;2024-03-17T02:05:21;59434.69;;;-143.89;58.46
21359;BME280;13506;50.852;20.632;2024-03-17T02:07:49;59438.63;;;-143.89;58.03
21359;BME280;13506;50.852;20.632;2024-03-17T02:10:17;59446.56;;;-143.89;58.73
21359;BME280;13506;50.852;20.632;2024-03-17T02:12:45;59426.75;;;-143.89;58.73
21359;BME280;13506;50.852;20.632;2024-03-17T02:15:14;59418.84;;;-143.89;58.48
21359;BME280;13506;50.852;20.632;2024-03-17T02:17:41;59434.69;;;-143.89;57.95
21359;BME280;13506;50.852;20.632;2024-03-17T02:20:10;59482.22;;;-143.89;58.04
21359;BME280;13506;50.852;20.632;2024-03-17T02:22:39;59434.69;;;-143.89;58.61
21359;BME280;13506;50.852;20.632;2024-03-17T02:25:08;59452.50;;;-143.89;58.13
21359;BME280;13506;50.852;20.632;2024-03-17T02:27:35;59416.84;;;-143.89;58.25
21359;BME280;13506;50.852;20.632;2024-03-17T02:30:03;59468.34;;;-143.89;58.58
21359;BME280;13506;50.852;20.632;2024-03-17T02:32:31;59462.41;;;-143.89;58.53
21359;BME280;13506;50.852;20.632;2024-03-17T02:35:00;59456.47;;;-143.89;58.14
21359;BME280;13506;50.852;20.632;2024-03-17T02:37:27;59410.91;;;-143.89;59.20
21359;BME280;13506;50.852;20.632;2024-03-17T02:39:57;59458.44;;;-143.89;59.06
21359;BME280;13506;50.852;20.632;2024-03-17T02:42:24;59446.56;;;-143.89;59.25
21359;BME280;13506;50.852;20.632;2024-03-17T02:44:53;59450.53;;;-143.89;58.92
21359;BME280;13506;50.852;20.632;2024-03-17T02:47:21;59450.53;;;-143.89;59.38
21359;BME280;13506;50.852;20.632;2024-03-17T02:49:50;59442.59;;;-143.89;59.22
21359;BME280;13506;50.852;20.632;2024-03-17T02:52:19;59478.25;;;-143.89;59.69
21359;BME280;13506;50.852;20.632;2024-03-17T02:54:47;59430.72;;;-143.89;59.41
21359;BME280;13506;50.852;20.632;2024-03-17T02:57:16;59462.41;;;-143.89;59.45
21359;BME280;13506;50.852;20.632;2024-03-17T02:59:44;59414.88;;;-143.89;59.62
21359;BME280;13506;50.852;20.632;2024-03-17T03:02:13;59450.53;;;-143.89;59.51
21359;BME280;13506;50.852;20.632;2024-03-17T03:04:41;59416.84;;;-143.89;59.75
21359;BME280;13506;50.852;20.632;2024-03-17T03:07:09;59432.69;;;-143.89;59.56
21359;BME280;13506;50.852;20.632;2024-03-17T03:09:38;59462.41;;;-143.89;59.86
21359;BME280;13506;50.852;20.632;2024-03-17T03:12:07;59434.69;;;-143.89;59.88
21359;BME280;13506;50.852;20.632;2024-03-17T03:14:36;59484.19;;;-143.89;59.75
21359;BME280;13506;50.852;20.632;2024-03-17T03:17:04;59426.75;;;-143.89;59.34
21359;BME280;13506;50.852;20.632;2024-03-17T03:19:32;59438.63;;;-143.89;59.68
21359;BME280;13506;50.852;20.632;2024-03-17T03:22:00;59426.75;;;-143.89;59.60
21359;BME280;13506;50.852;20.632;2024-03-17T03:24:29;59424.78;;;-143.89;58.97
21359;BME280;13506;50.852;20.632;2024-03-17T03:26:56;59438.63;;;-143.89;58.99
21359;BME280;13506;50.852;20.632;2024-03-17T03:29:24;59442.59;;;-143.89;58.79
21359;BME280;13506;50.852;20.632;2024-03-17T03:31:54;59458.44;;;-143.89;59.60
21359;BME280;13506;50.852;20.632;2024-03-17T03:34:22;59450.53;;;-143.89;59.94
21359;BME280;13506;50.852;20.632;2024-03-17T03:36:50;59430.72;;;-143.89;59.18
21359;BME280;13506;50.852;20.632;2024-03-17T03:39:18;59460.41;;;-143.89;59.65
21359;BME280;13506;50.852;20.632;2024-03-17T03:41:46;59472.31;;;-143.89;59.77
21359;BME280;13506;50.852;20.632;2024-03-17T03:44:15;59468.34;;;-143.89;59.49
21359;BME280;13506;50.852;20.632;2024-03-17T03:46:44;59458.44;;;-143.89;59.61
21359;BME280;13506;50.852;20.632;2024-03-17T03:49:14;59478.25;;;-143.89;58.97
21359;BME280;13506;50.852;20.632;2024-03-17T03:51:42;59458.44;;;-143.89;59.71
21359;BME280;13506;50.852;20.632;2024-03-17T03:54:11;59492.09;;;-143.89;59.12
21359;BME280;13506;50.852;20.632;2024-03-17T03:56:39;59462.41;;;-143.89;59.33
21359;BME280;13506;50.852;20.632;2024-03-17T03:59:07;59444.56;;;-143.89;58.97
21359;BME280;13506;50.852;20.632;2024-03-17T04:01:35;59466.38;;;-143.89;58.22
21359;BME280;13506;50.852;20.632;2024-03-17T04:04:04;59442.59;;;-143.89;58.75
21359;BME280;13506;50.852;20.632;2024-03-17T04:06:33;59446.56;;;-143.89;58.38
21359;BME280;13506;50.852;20.632;2024-03-17T04:09:04;59482.22;;;-143.89;58.52
21359;BME280;13506;50.852;20.632;2024-03-17T04:11:33;59470.31;;;-143.89;57.88
21359;BME280;13506;50.852;20.632;2024-03-17T04:14:01;59474.28;;;-143.89;58.25
21359;BME280;13506;50.852;20.632;2024-03-17T04:16:30;59482.22;;;-143.89;58.13
21359;BME280;13506;50.852;20.632;2024-03-17T04:18:58;59462.41;;;-143.89;57.93
21359;BME280;13506;50.852;20.632;2024-03-17T04:21:26;59486.16;;;-143.89;58.09
21359;BME280;13506;50.852;20.632;2024-03-17T04:23:56;59468.34;;;-143.89;58.42
21359;BME280;13506;50.852;20.632;2024-03-17T04:26:24;59507.94;;;-143.89;57.85
21359;BME280;13506;50.852;20.632;2024-03-17T04:28:52;59486.16;;;-143.89;58.20
21359;BME280;13506;50.852;20.632;2024-03-17T04:31:20;59484.19;;;-143.89;58.56
21359;BME280;13506;50.852;20.632;2024-03-17T04:33:49;59466.38;;;-143.89;57.86
21359;BME280;13506;50.852;20.632;2024-03-17T04:36:18;59486.16;;;-143.89;58.34
21359;BME280;13506;50.852;20.632;2024-03-17T04:38:46;59488.16;;;-143.89;58.09
21359;BME280;13506;50.852;20.632;2024-03-17T04:41:17;59478.25;;;-143.89;58.10
21359;BME280;13506;50.852;20.632;2024-03-17T04:43:45;59458.44;;;-143.89;57.47
21359;BME280;13506;50.852;20.632;2024-03-17T04:46:13;59490.13;;;-143.89;58.01
21359;BME280;13506;50.852;20.632;2024-03-17T04:48:42;59494.09;;;-143.89;57.64
21359;BME280;13506;50.852;20.632;2024-03-17T04:51:15;59464.38;;;-143.89;57.77
21359;BME280;13506;50.852;20.632;2024-03-17T04:53:44;59523.78;;;-143.89;57.49
21359;BME280;13506;50.852;20.632;2024-03-17T04:56:12;59500.03;;;-143.89;57.77
21359;BME280;13506;50.852;20.632;2024-03-17T04:58:42;59496.06;;;-143.89;58.03
21359;BME280;13506;50.852;20.632;2024-03-17T05:01:10;59490.13;;;-143.89;57.46
21359;BME280;13506;50.852;20.632;2024-03-17T05:03:39;59458.44;;;-143.89;57.07
21359;BME280;13506;50.852;20.632;2024-03-17T05:06:07;59426.75;;;-143.89;56.99
21359;BME280;13506;50.852;20.632;2024-03-17T05:08:35;59484.19;;;-143.89;56.90
21359;BME280;13506;50.852;20.632;2024-03-17T05:11:05;59478.25;;;-143.89;56.61
21359;BME280;13506;50.852;20.632;2024-03-17T05:13:34;59466.38;;;-143.89;56.71
21359;BME280;13506;50.852;20.632;2024-03-17T05:16:06;59486.16;;;-143.89;56.46
21359;BME280;13506;50.852;20.632;2024-03-17T05:18:34;59430.72;;;-143.89;56.36
21359;BME280;13506;50.852;20.632;2024-03-17T05:21:04;59478.25;;;-143.89;56.80
21359;BME280;13506;50.852;20.632;2024-03-17T05:23:34;59478.25;;;-143.89;57.02
21359;BME280;13506;50.852;20.632;2024-03-17T05:26:03;59490.13;;;-143.89;56.39
21359;BME280;13506;50.852;20.632;2024-03-17T05:28:32;59494.09;;;-143.89;56.68
21359;BME280;13506;50.852;20.632;2024-03-17T05:31:00;59458.44;;;-143.89;56.81
21359;BME280;13506;50.852;20.632;2024-03-17T05:33:30;59472.31;;;-143.89;56.33
21359;BME280;13506;50.852;20.632;2024-03-17T05:36:01;59492.09;;;-143.89;56.38
21359;BME280;13506;50.852;20.632;2024-03-17T05:38:30;59486.16;;;-143.89;56.68
21359;BME280;13506;50.852;20.632;2024-03-17T05:41:00;59490.13;;;-143.89;56.58
21359;BME280;13506;50.852;20.632;2024-03-17T05:43:30;59442.59;;;-143.89;56.16
21359;BME280;13506;50.852;20.632;2024-03-17T05:46:00;59442.59;;;-143.89;56.44
21359;BME280;13506;50.852;20.632;2024-03-17T05:48:31;59434.69;;;-143.89;55.84
21359;BME280;13506;50.852;20.632;2024-03-17T05:51:01;59434.69;;;-143.89;55.07
21359;BME280;13506;50.852;20.632;2024-03-17T05:53:30;59408.94;;;-143.89;55.56
21359;BME280;13506;50.852;20.632;2024-03-17T05:55:59;59456.47;;;-143.89;55.41
21359;BME280;13506;50.852;20.632;2024-03-17T05:58:27;59474.28;;;-143.89;54.55
21359;BME280;13506;50.852;20.632;2024-03-17T06:00:55;59460.41;;;-143.89;55.08
21359;BME280;13506;50.852;20.632;2024-03-17T06:03:25;59472.31;;;-143.89;54.35
21359;BME280;13506;50.852;20.632;2024-03-17T06:05:54;59408.94;;;-143.89;54.82
21359;BME280;13506;50.852;20.632;2024-03-17T06:08:22;59426.75;;;-143.89;54.41
21359;BME280;13506;50.852;20.632;2024-03-17T06:10:51;59426.75;;;-143.89;53.91
21359;BME280;13506;50.852;20.632;2024-03-17T06:13:19;59424.78;;;-143.89;52.11
21359;BME280;13506;50.852;20.632;2024-03-17T06:15:47;59450.53;;;-143.89;52.24
21359;BME280;13506;50.852;20.632;2024-03-17T06:18:15;59432.69;;;-143.89;52.68
21359;BME280;13506;50.852;20.632;2024-03-17T06:20:45;59412.91;;;-143.89;51.80
21359;BME280;13506;50.852;20.632;2024-03-17T06:23:16;59408.94;;;-143.89;51.95
21359;BME280;13506;50.852;20.632;2024-03-17T06:25:46;59470.31;;;-143.89;51.46
21359;BME280;13506;50.852;20.632;2024-03-17T06:28:15;59422.78;;;-143.89;52.00
21359;BME280;13506;50.852;20.632;2024-03-17T06:30:44;59474.28;;;-143.89;52.09
21359;BME280;13506;50.852;20.632;2024-03-17T06:33:16;59452.50;;;-143.89;51.54
21359;BME280;13506;50.852;20.632;2024-03-17T06:35:45;59406.94;;;-143.89;51.52
21359;BME280;13506;50.852;20.632;2024-03-17T06:38:15;59422.78;;;-143.89;51.44
21359;BME280;13506;50.852;20.632;2024-03-17T06:40:48;59466.38;;;-143.89;51.63
21359;BME280;13506;50.852;20.632;2024-03-17T06:43:17;59470.31;;;-143.89;50.49
21359;BME280;13506;50.852;20.632;2024-03-17T06:45:54;59446.56;;;-143.89;50.87
21359;BME280;13506;50.852;20.632;2024-03-17T06:48:23;59478.25;;;-143.89;50.82
21359;BME280;13506;50.852;20.632;2024-03-17T06:50:51;59446.56;;;-143.89;50.52
21359;BME280;13506;50.852;20.632;2024-03-17T06:53:22;59450.53;;;-143.89;51.32
21359;BME280;13506;50.852;20.632;2024-03-17T06:55:56;59464.38;;;-143.89;50.64
21359;BME280;13506;50.852;20.632;2024-03-17T06:58:26;59442.59;;;-143.89;50.89
21359;BME280;13506;50.852;20.632;2024-03-17T07:00:56;59474.28;;;-143.89;50.66
21359;BME280;13506;50.852;20.632;2024-03-17T07:03:25;59450.53;;;-143.89;50.67
21359;BME280;13506;50.852;20.632;2024-03-17T07:05:54;59478.25;;;-143.89;50.39
21359;BME280;13506;50.852;20.632;2024-03-17T07:08:24;59478.25;;;-143.89;50.18
21359;BME280;13506;50.852;20.632;2024-03-17T07:10:57;59458.44;;;-143.89;50.11
21359;BME280;13506;50.852;20.632;2024-03-17T07:13:29;59436.66;;;-143.89;49.87
21359;BME280;13506;50.852;20.632;2024-03-17T07:15:58;59462.41;;;-143.89;50.13
21359;BME280;13506;50.852;20.632;2024-03-17T07:18:26;59410.91;;;-143.89;50.55
21359;BME280;13506;50.852;20.632;2024-03-17T07:20:57;59428.72;;;-143.89;49.15
21359;BME280;13506;50.852;20.632;2024-03-17T07:23:27;59450.53;;;-143.89;48.75
21359;BME280;13506;50.852;20.632;2024-03-17T07:25:55;59406.94;;;-143.89;48.60
21359;BME280;13506;50.852;20.632;2024-03-17T07:28:24;59397.06;;;-143.89;47.86
21359;BME280;13506;50.852;20.632;2024-03-17T07:30:54;59416.84;;;-143.89;47.70
21359;BME280;13506;50.852;20.632;2024-03-17T07:33:23;59391.09;;;-143.89;47.43
21359;BME280;13506;50.852;20.632;2024-03-17T07:35:52;59404.97;;;-143.89;46.24
21359;BME280;13506;50.852;20.632;2024-03-17T07:38:21;59420.81;;;-143.89;45.70
21359;BME280;13506;50.852;20.632;2024-03-17T07:40:58;59383.19;;;-143.89;45.32
21359;BME280;13506;50.852;20.632;2024-03-17T07:43:27;59414.88;;;-143.89;44.50
21359;BME280;13506;50.852;20.632;2024-03-17T07:45:59;59416.84;;;-143.89;44.51
21359;BME280;13506;50.852;20.632;2024-03-17T07:48:28;59395.06;;;-143.89;45.15
21359;BME280;13506;50.852;20.632;2024-03-17T07:50:57;59383.19;;;-143.89;45.03
21359;BME280;13506;50.852;20.632;2024-03-17T07:53:25;59416.84;;;-143.89;42.97
21359;BME280;13506;50.852;20.632;2024-03-17T07:56:03;59418.84;;;-143.89;44.30
21359;BME280;13506;50.852;20.632;2024-03-17T07:58:32;59418.84;;;-143.89;43.41
21359;BME280;13506;50.852;20.632;2024-03-17T08:01:01;59406.94;;;-143.89;42.69
21359;BME280;13506;50.852;20.632;2024-03-17T08:03:30;59397.06;;;-143.89;42.09
21359;BME280;13506;50.852;20.632;2024-03-17T08:05:59;59408.94;;;-143.89;41.50
21359;BME280;13506;50.852;20.632;2024-03-17T08:08:28;59422.78;;;-143.89;40.72
21359;BME280;13506;50.852;20.632;2024-03-17T08:10:57;59397.06;;;-143.89;41.32
21359;BME280;13506;50.852;20.632;2024-03-17T08:13:26;59385.16;;;-143.89;41.99
21359;BME280;13506;50.852;20.632;2024-03-17T08:15:59;59399.03;;;-143.89;42.00
21359;BME280;13506;50.852;20.632;2024-03-17T08:18:27;59414.88;;;-143.89;41.91
21359;BME280;13506;50.852;20.632;2024-03-17T08:20:56;59438.63;;;-143.89;40.97
21359;BME280;13506;50.852;20.632;2024-03-17T08:23:24;59395.06;;;-143.89;39.75
21359;BME280;13506;50.852;20.632;2024-03-17T08:25:53;59434.69;;;-143.89;40.27
21359;BME280;13506;50.852;20.632;2024-03-17T08:28:21;59418.84;;;-143.89;40.14
21359;BME280;13506;50.852;20.632;2024-03-17T08:30:54;59442.59;;;-143.89;41.34
21359;BME280;13506;50.852;20.632;2024-03-17T08:33:23;59434.69;;;-143.89;41.45
21359;BME280;13506;50.852;20.632;2024-03-17T08:35:55;59434.69;;;-143.89;41.16
21359;BME280;13506;50.852;20.632;2024-03-17T08:38:25;59432.69;;;-143.89;41.44
21359;BME280;13506;50.852;20.632;2024-03-17T08:40:55;59438.63;;;-143.89;40.62
21359;BME280;13506;50.852;20.632;2024-03-17T08:43:23;59393.09;;;-143.89;40.76
21359;BME280;13506;50.852;20.632;2024-03-17T08:45:56;59387.16;;;-143.89;40.50
21359;BME280;13506;50.852;20.632;2024-03-17T08:48:26;59403.00;;;-143.89;39.65
21359;BME280;13506;50.852;20.632;2024-03-17T08:50:56;59339.63;;;-143.89;39.23
21359;BME280;13506;50.852;20.632;2024-03-17T08:53:24;59300.00;;;-143.89;37.69
21359;BME280;13506;50.852;20.632;2024-03-17T08:55:53;59300.00;;;-143.89;36.83
21359;BME280;13506;50.852;20.632;2024-03-17T08:58:21;59290.13;;;-143.89;36.72
21359;BME280;13506;50.852;20.632;2024-03-17T09:00:49;59256.44;;;-143.89;35.61
21359;BME280;13506;50.852;20.632;2024-03-17T09:03:20;59260.41;;;-143.89;34.89
21359;BME280;13506;50.852;20.632;2024-03-17T09:05:49;59236.66;;;-143.89;33.34
21359;BME280;13506;50.852;20.632;2024-03-17T09:08:20;59228.72;;;-143.89;32.02
21359;BME280;13506;50.852;20.632;2024-03-17T09:10:50;59185.16;;;-143.89;31.38
21359;BME280;13506;50.852;20.632;2024-03-17T09:13:20;59218.81;;;-143.89;31.98
21359;BME280;13506;50.852;20.632;2024-03-17T09:15:51;59169.31;;;-143.89;30.67
21359;BME280;13506;50.852;20.632;2024-03-17T09:18:20;59183.19;;;-143.89;30.15
21359;BME280;13506;50.852;20.632;2024-03-17T09:20:57;59171.31;;;-143.89;29.12
21359;BME280;13506;50.852;20.632;2024-03-17T09:23:25;59197.03;;;-143.89;28.82
21359;BME280;13506;50.852;20.632;2024-03-17T09:25:58;59216.84;;;-143.89;28.77
21359;BME280;13506;50.852;20.632;2024-03-17T09:28:29;59244.56;;;-143.89;28.52
21359;BME280;13506;50.852;20.632;2024-03-17T09:30:58;59232.69;;;-143.89;29.21
21359;BME280;13506;50.852;20.632;2024-03-17T09:33:29;59260.41;;;-143.89;30.21
21359;BME280;13506;50.852;20.632;2024-03-17T09:35:58;59268.34;;;-143.89;30.46
21359;BME280;13506;50.852;20.632;2024-03-17T09:38:27;59276.25;;;-143.89;30.88
21359;BME280;13506;50.852;20.632;2024-03-17T09:40:55;59292.09;;;-143.89;31.27
21359;BME280;13506;50.852;20.632;2024-03-17T09:43:27;59292.09;;;-143.89;31.35
21359;BME280;13506;50.852;20.632;2024-03-17T09:45:55;59258.44;;;-143.89;31.98
21359;BME280;13506;50.852;20.632;2024-03-17T09:48:27;59298.03;;;-143.89;32.65
21359;BME280;13506;50.852;20.632;2024-03-17T09:50:57;59315.84;;;-143.89;33.42
21359;BME280;13506;50.852;20.632;2024-03-17T09:53:27;59298.03;;;-143.89;33.67
21359;BME280;13506;50.852;20.632;2024-03-17T09:56:01;59327.75;;;-143.89;33.74
21359;BME280;13506;50.852;20.632;2024-03-17T09:58:31;59333.69;;;-143.89;34.44
21359;BME280;13506;50.852;20.632;2024-03-17T10:00:59;59313.88;;;-143.89;33.90
21359;BME280;13506;50.852;20.632;2024-03-17T10:03:42;59317.84;;;-143.89;33.58
21359;BME280;13506;50.852;20.632;2024-03-17T10:06:12;59311.91;;;-143.89;33.19
21359;BME280;13506;50.852;20.632;2024-03-17T10:08:44;59323.78;;;-143.89;33.56
21359;BME280;13506;50.852;20.632;2024-03-17T10:11:13;59331.69;;;-143.89;33.47
21359;BME280;13506;50.852;20.632;2024-03-17T10:13:43;59307.94;;;-143.89;33.16
21359;BME280;13506;50.852;20.632;2024-03-17T10:16:22;59292.09;;;-143.89;33.65
21359;BME280;13506;50.852;20.632;2024-03-17T10:19:06;59296.06;;;-143.89;33.47
21359;BME280;13506;50.852;20.632;2024-03-17T10:21:37;59300.00;;;-143.89;33.83
21359;BME280;13506;50.852;20.632;2024-03-17T10:24:07;59296.06;;;-143.89;33.75
21359;BME280;13506;50.852;20.632;2024-03-17T10:26:42;59302.00;;;-143.89;34.03
21359;BME280;13506;50.852;20.632;2024-03-17T10:29:20;59311.91;;;-143.89;33.04
21359;BME280;13506;50.852;20.632;2024-03-17T10:31:51;59335.66;;;-143.89;33.10
21359;BME280;13506;50.852;20.632;2024-03-17T10:34:22;59321.81;;;-143.89;33.07
21359;BME280;13506;50.852;20.632;2024-03-17T10:36:52;59296.06;;;-143.89;32.74
21359;BME280;13506;50.852;20.632;2024-03-17T10:39:25;59327.75;;;-143.89;32.67
21359;BME280;13506;50.852;20.632;2024-03-17T10:41:59;59300.00;;;-143.89;32.76
21359;BME280;13506;50.852;20.632;2024-03-17T10:44:28;59335.66;;;-143.89;32.96
21359;BME280;13506;50.852;20.632;2024-03-17T10:46:57;59339.63;;;-143.89;33.44
21359;BME280;13506;50.852;20.632;2024-03-17T10:49:30;59327.75;;;-143.89;33.50
21359;BME280;13506;50.852;20.632;2024-03-17T10:52:00;59331.69;;;-143.89;33.60
21359;BME280;13506;50.852;20.632;2024-03-17T10:54:29;59335.66;;;-143.89;33.80
21359;BME280;13506;50.852;20.632;2024-03-17T10:57:13;59335.66;;;-143.89;33.43
21359;BME280;13506;50.852;20.632;2024-03-17T10:59:48;59300.00;;;-143.89;33.51
21359;BME280;13506;50.852;20.632;2024-03-17T11:02:22;59309.91;;;-143.89;33.63
21359;BME280;13506;50.852;20.632;2024-03-17T11:04:53;59311.91;;;-143.89;33.58
21359;BME280;13506;50.852;20.632;2024-03-17T11:07:22;59311.91;;;-143.89;33.49
21359;BME280;13506;50.852;20.632;2024-03-17T11:09:54;59305.97;;;-143.89;33.50
21359;BME280;13506;50.852;20.632;2024-03-17T11:12:42;59327.75;;;-143.89;33.27
21359;BME280;13506;50.852;20.632;2024-03-17T11:15:37;59331.69;;;-143.89;33.23
21359;BME280;13506;50.852;20.632;2024-03-17T11:18:35;59288.13;;;-143.89;33.71
21359;BME280;13506;50.852;20.632;2024-03-17T11:21:07;59311.91;;;-143.89;33.95
21359;BME280;13506;50.852;20.632;2024-03-17T11:23:42;59298.03;;;-143.89;33.62
21359;BME280;13506;50.852;20.632;2024-03-17T11:26:11;59327.75;;;-143.89;33.55
21359;BME280;13506;50.852;20.632;2024-03-17T11:28:53;59339.63;;;-143.89;33.90
21359;BME280;13506;50.852;20.632;2024-03-17T11:31:43;59298.03;;;-143.89;34.10
21359;BME280;13506;50.852;20.632;2024-03-17T11:34:28;59347.53;;;-143.89;34.31
21359;BME280;13506;50.852;20.632;2024-03-17T11:36:59;59321.81;;;-143.89;35.03
21359;BME280;13506;50.852;20.632;2024-03-17T11:39:49;59303.97;;;-143.89;34.34
21359;BME280;13506;50.852;20.632;2024-03-17T11:42:23;59296.06;;;-143.89;34.20
21359;BME280;13506;50.852;20.632;2024-03-17T11:44:57;59353.47;;;-143.89;34.31
21359;BME280;13506;50.852;20.632;2024-03-17T11:47:34;59337.63;;;-143.89;34.66
21359;BME280;13506;50.852;20.632;2024-03-17T11:50:06;59331.69;;;-143.89;34.39
21359;BME280;13506;50.852;20.632;2024-03-17T11:52:38;59319.81;;;-143.89;34.37
21359;BME280;13506;50.852;20.632;2024-03-17T11:55:16;59296.06;;;-143.89;34.10
21359;BME280;13506;50.852;20.632;2024-03-17T11:57:44;59296.06;;;-143.89;34.22
21359;BME280;13506;50.852;20.632;2024-03-17T12:00:20;59305.97;;;-143.89;34.16
21359;BME280;13506;50.852;20.632;2024-03-17T12:02:49;59307.94;;;-143.89;34.23
21359;BME280;13506;50.852;20.632;2024-03-17T12:05:17;59345.56;;;-143.89;34.16
21359;BME280;13506;50.852;20.632;2024-03-17T12:07:46;59331.69;;;-143.89;34.22
21359;BME280;13506;50.852;20.632;2024-03-17T12:10:14;59331.69;;;-143.89;34.63
21359;BME280;13506;50.852;20.632;2024-03-17T12:12:47;59321.81;;;-143.89;34.54
21359;BME280;13506;50.852;20.632;2024-03-17T12:15:17;59317.84;;;-143.89;34.34
21359;BME280;13506;50.852;20.632;2024-03-17T12:17:45;59303.97;;;-143.89;34.49
21359;BME280;13506;50.852;20.632;2024-03-17T12:20:20;59296.06;;;-143.89;35.06
21359;BME280;13506;50.852;20.632;2024-03-17T12:22:49;59337.63;;;-143.89;35.46
21359;BME280;13506;50.852;20.632;2024-03-17T12:25:19;59351.50;;;-143.89;35.14
21359;BME280;13506;50.852;20.632;2024-03-17T12:27:48;59331.69;;;-143.89;35.62
21359;BME280;13506;50.852;20.632;2024-03-17T12:30:16;59317.84;;;-143.89;35.57
21359;BME280;13506;50.852;20.632;2024-03-17T12:32:44;59311.91;;;-143.89;35.39
21359;BME280;13506;50.852;20.632;2024-03-17T12:35:14;59343.59;;;-143.89;35.51
21359;BME280;13506;50.852;20.632;2024-03-17T12:37:44;59319.81;;;-143.89;35.61
21359;BME280;13506;50.852;20.632;2024-03-17T12:40:23;59347.53;;;-143.89;35.85
21359;BME280;13506;50.852;20.632;2024-03-17T12:42:51;59315.84;;;-143.89;36.21
21359;BME280;13506;50.852;20.632;2024-03-17T12:45:22;59307.94;;;-143.89;35.81